Airfield :
LOGIN :

Register | Disclaimer

   EN    FR    IT 

 










Legend :    VFR   Marginal VFR   IFR   Intensive IFR   Very Intensive IFR
Visi :
Ceiling :
>= 8 km
>= 3000ft
5 to 8 km
1000 to 3000 ft
1500m to 5 km
500 to 1000 ft
800 to 1500m
200 to 500 ft
< 800m
< 200 ft
Symbols :   Thunderstorms  Fog  Heavy snow  Heavy precipitations  Wind > 20 kt
SIGMETs :     Misc.  Thunderstorms  Icing  Turbulence  Mountain Waves  Volcanic Ashes







- Airport Elevation : 1521 ft
- IATA code : NCY
- Download approach charts


LFLP - Annecy

CURRENT METAR :
  • 150030Z AUTO 27018G32KT 240V310 2600 +SNRA BR FEW012/// SCT020/// BKN041/// ///TCU 02/M01 Q1002

EXPIRED METARs :
  • 150000Z AUTO 20015KT 170V240 9999 RA FEW032/// BKN046/// OVC058/// ///TCU 09/02 Q0999
  • 142330Z AUTO 20016G27KT 160V240 9999 -RA BKN046 BKN054 OVC084 09/02 Q1000
  • 142300Z AUTO 19015G29KT 160V220 9999 BKN048 OVC056 10/01 Q1000
  • 142230Z AUTO 19015G25KT 160V230 9999 -RA FEW038 BKN046 BKN052 09/02 Q1000
  • 142200Z AUTO 19018G28KT 160V230 9999 -RA BKN049 BKN056 OVC066 10/01 Q1000

TAF TAF LFLP
Valid from the 14 at 15:00 until the 15 at 15:00 UTC


141400Z 1415/1515 21009KT 9999 BKN040
TEMPO 1420/1503 27015G35KT 4000 SHRA SCT012TCU BKN014
PROB40
TEMPO 1423/1501 BKN009 SCT025CB
PROB30
TEMPO 1500/1503 1500 SHSN
BECMG 1507/1509 CAVOK
No reported NOTAMs for that airfield.
3 SIGMETs reported for the Marseille FIR (LFMM) :
 
Severe mountain waves
LFMM SIGMET 22 VALID 142300/150300 LFPW
LFMM MARSEILLE FIR/UIR SEV MTW FCST E OF E00845 SFC/FL270 STNR WKN=
Severe turbulence
LFMM SIGMET 21 VALID 142300/150300 LFPW
LFMM MARSEILLE FIR/UIR SEV TURB FCST WI N4630 E00515 - N4630 E00700 - N4400 E00700 - N4345 E00630 - N4630 E00515 SFC/FL130 STNR NC=
Severe turbulence
LFMM SIGMET 20 VALID 142300/150300 LFPW
LFMM MARSEILLE FIR/UIR SEV TURB FCST N OF N4415 FL170/280 STNR WKN=



MET'MAP, your aeronautical weather chart ! - Copyright ORBIFLY December 2007 - Disclaimer

ORBIFLY MET'MAP TEAM :

Programming & Development : Alexandra Zaïnal
Concept & Development : Baudouin d'Aumeries
Co-Development & Prog : Marc-Olivier Méhu
Technical & hardware support : Manuel Goepfert

Contact : metmap@orbifly.com




SOURCES & CREDITS :

   NOAA